Time;durP1;ratioP1;P1;durP2;ratioP2;P2;SDS_P1;SDS_P2;PMS_P1;PMS_P2;Temp;Humidity;BMP_temperature;BMP_pressure;BME280_temperature;BME280_humidity;BME280_pressure;Samples;Min_cycle;Max_cycle;Signal;HPM_P1;HPM_P2
2021/12/26 00:01:42;;;;;;;4.05;1.77;;;-7.20;99.90;;;;;;5042822;28;20123;-64
2021/12/26 00:04:13;;;;;;;4.53;1.63;;;-7.10;99.90;;;;;;5035394;28;20032;-63
2021/12/26 00:06:38;;;;;;;3.05;1.75;;;-7.00;99.90;;;;;;5036833;28;20048;-64
2021/12/26 00:09:04;;;;;;;4.43;1.73;;;-6.90;99.90;;;;;;5046907;28;20451;-64
2021/12/26 00:11:30;;;;;;;4.53;1.80;;;-6.90;99.90;;;;;;5023523;28;20100;-64
2021/12/26 00:13:56;;;;;;;3.17;1.83;;;-6.90;99.90;;;;;;5037211;28;20041;-64
2021/12/26 00:16:22;;;;;;;4.32;1.98;;;-7.00;99.90;;;;;;5034984;28;20120;-64
2021/12/26 00:18:48;;;;;;;2.70;1.60;;;-7.00;99.90;;;;;;5031009;28;20088;-63
2021/12/26 00:21:16;;;;;;;2.53;1.60;;;-7.00;99.90;;;;;;5059555;28;20053;-64
2021/12/26 00:23:42;;;;;;;2.53;1.60;;;-7.10;99.90;;;;;;5040347;28;20042;-63
2021/12/26 00:26:08;;;;;;;2.78;1.65;;;-7.20;99.90;;;;;;5030921;28;20410;-63
2021/12/26 00:28:34;;;;;;;2.10;1.40;;;-7.20;99.90;;;;;;5028721;28;20167;-63
2021/12/26 00:30:59;;;;;;;6.93;2.38;;;-7.10;99.90;;;;;;5034027;28;20492;-64
2021/12/26 00:33:26;;;;;;;4.82;2.22;;;-7.10;99.90;;;;;;5041928;28;20075;-63
2021/12/26 00:35:52;;;;;;;2.33;1.35;;;-7.20;99.90;;;;;;5044130;28;20041;-64
2021/12/26 00:38:17;;;;;;;4.00;1.80;;;-7.30;99.90;;;;;;5031094;28;20132;-63
2021/12/26 00:40:44;;;;;;;3.05;1.67;;;-7.20;99.90;;;;;;5039703;28;20214;-64
2021/12/26 00:43:10;;;;;;;4.47;1.83;;;-7.20;99.90;;;;;;5040219;28;20495;-63
2021/12/26 00:45:36;;;;;;;1.40;1.30;;;-7.20;99.90;;;;;;5034995;28;20152;-64
2021/12/26 00:48:03;;;;;;;2.75;1.80;;;-7.30;99.90;;;;;;5040107;28;20507;-64
2021/12/26 00:50:33;;;;;;;9.18;1.77;;;-7.30;99.90;;;;;;5028155;28;20041;-63
2021/12/26 00:52:59;;;;;;;4.15;1.40;;;-7.30;99.90;;;;;;5037776;28;20041;-64
2021/12/26 00:55:25;;;;;;;2.40;1.60;;;-7.30;99.90;;;;;;5037036;28;20029;-64
2021/12/26 00:57:51;;;;;;;4.00;2.28;;;-7.30;99.90;;;;;;5029690;28;20103;-63
2021/12/26 01:00:21;;;;;;;1.85;1.20;;;-7.30;99.90;;;;;;5041247;28;20043;-64
2021/12/26 01:02:47;;;;;;;4.10;1.55;;;-7.30;99.90;;;;;;5036514;28;20338;-63
2021/12/26 01:05:13;;;;;;;3.42;1.80;;;-7.40;99.90;;;;;;5040743;28;20057;-64
2021/12/26 01:10:17;;;;;;;3.83;1.80;;;-7.50;99.90;;;;;;5029552;28;20386;-64
2021/12/26 01:12:42;;;;;;;3.15;1.77;;;-7.50;99.90;;;;;;5035885;28;20517;-64
2021/12/26 01:15:10;;;;;;;3.15;1.75;;;-7.60;99.90;;;;;;5035422;28;20042;-63
2021/12/26 01:17:39;;;;;;;4.88;1.90;;;-7.60;99.90;;;;;;5025022;28;20120;-64
2021/12/26 01:20:10;;;;;;;2.83;1.70;;;-7.70;99.90;;;;;;5028673;28;20068;-64
2021/12/26 01:22:37;;;;;;;5.10;1.83;;;-7.60;99.90;;;;;;5039997;28;20038;-64
2021/12/26 01:25:06;;;;;;;2.38;1.80;;;-7.60;99.90;;;;;;5040505;28;20041;-64
2021/12/26 01:27:31;;;;;;;5.32;2.00;;;-7.50;99.90;;;;;;5029434;28;20137;-65
2021/12/26 01:29:57;;;;;;;4.05;1.63;;;-7.60;99.90;;;;;;5038138;28;20041;-64
2021/12/26 01:32:23;;;;;;;3.00;1.95;;;-7.60;99.90;;;;;;5043200;28;20305;-64
2021/12/26 01:34:49;;;;;;;5.03;1.90;;;-7.60;99.90;;;;;;5038083;28;20050;-63
2021/12/26 01:37:14;;;;;;;9.43;1.95;;;-7.60;99.90;;;;;;5041321;28;20984;-64
2021/12/26 01:39:40;;;;;;;5.20;2.13;;;-7.50;99.90;;;;;;5027843;28;20029;-64
2021/12/26 01:42:08;;;;;;;5.45;1.55;;;-7.40;99.90;;;;;;5032478;28;20480;-64
2021/12/26 01:44:35;;;;;;;2.58;1.65;;;-7.40;99.90;;;;;;5045435;28;20403;-63
2021/12/26 01:47:01;;;;;;;2.53;1.63;;;-7.30;99.90;;;;;;5043507;28;20045;-63
2021/12/26 01:49:30;;;;;;;3.30;2.10;;;-7.20;99.90;;;;;;5050114;28;20044;-63
2021/12/26 01:51:58;;;;;;;3.00;1.37;;;-7.20;99.90;;;;;;5045048;28;20048;-64
2021/12/26 01:54:31;;;;;;;3.50;1.75;;;-7.20;99.90;;;;;;5032582;28;20089;-63
2021/12/26 01:57:00;;;;;;;4.38;1.77;;;-7.20;99.90;;;;;;5026589;28;20033;-64
2021/12/26 01:59:26;;;;;;;4.85;1.77;;;-7.20;99.90;;;;;;5040058;28;20629;-64
2021/12/26 02:01:54;;;;;;;3.45;1.55;;;-7.20;99.90;;;;;;5038499;28;20041;-63
2021/12/26 02:04:20;;;;;;;1.83;1.30;;;-7.30;99.90;;;;;;5029531;28;20045;-63
2021/12/26 02:06:46;;;;;;;4.70;1.60;;;-7.30;99.90;;;;;;5031112;28;20044;-63
2021/12/26 02:09:12;;;;;;;2.85;1.58;;;-7.40;99.90;;;;;;5038750;28;20040;-63
2021/12/26 02:11:39;;;;;;;2.03;1.40;;;-7.40;99.90;;;;;;5033666;28;20045;-63
2021/12/26 02:14:05;;;;;;;4.63;1.67;;;-7.40;99.90;;;;;;5046410;28;20037;-64
2021/12/26 02:16:31;;;;;;;3.42;1.73;;;-7.50;99.90;;;;;;5040998;28;20140;-64
2021/12/26 02:18:56;;;;;;;3.63;1.80;;;-7.60;99.90;;;;;;5036293;28;20051;-63
2021/12/26 02:29:24;;;;;;;3.03;1.50;;;-7.50;99.90;;;;;;5028091;28;20053;-64
2021/12/26 02:31:50;;;;;;;2.70;1.35;;;-7.60;99.90;;;;;;5036557;28;20438;-63
2021/12/26 02:34:16;;;;;;;4.90;1.90;;;-7.70;99.90;;;;;;5036384;28;20056;-64
2021/12/26 02:36:41;;;;;;;2.95;1.67;;;-7.70;99.90;;;;;;5028309;28;21389;-63
2021/12/26 02:39:07;;;;;;;2.88;1.40;;;-7.60;99.90;;;;;;5043870;28;20037;-64
2021/12/26 02:41:33;;;;;;;4.05;1.63;;;-7.70;99.90;;;;;;5042052;28;20037;-63
2021/12/26 02:43:58;;;;;;;2.15;1.58;;;-7.60;99.90;;;;;;5044810;28;20334;-63
2021/12/26 02:46:26;;;;;;;2.83;1.67;;;-7.60;99.90;;;;;;5031159;28;20041;-63
2021/12/26 02:48:52;;;;;;;2.38;1.27;;;-7.60;99.90;;;;;;5027426;28;20403;-63
2021/12/26 02:51:18;;;;;;;1.90;1.50;;;-7.60;99.90;;;;;;5039292;28;20040;-63
2021/12/26 02:53:49;;;;;;;3.67;1.60;;;-7.60;99.90;;;;;;5029738;28;20044;-64
2021/12/26 02:56:15;;;;;;;2.65;2.00;;;-7.60;99.90;;;;;;5029385;28;20049;-63
2021/12/26 02:58:40;;;;;;;3.67;1.60;;;-7.60;99.90;;;;;;5043515;28;20040;-63
2021/12/26 03:01:10;;;;;;;4.18;1.83;;;-7.70;99.90;;;;;;5024938;28;20080;-64
2021/12/26 03:03:36;;;;;;;5.78;1.80;;;-7.60;99.90;;;;;;5046247;28;20507;-63
2021/12/26 03:06:11;;;;;;;5.85;1.70;;;-7.60;99.90;;;;;;5042721;28;20037;-63
2021/12/26 03:08:36;;;;;;;4.65;1.63;;;-7.60;99.90;;;;;;5034092;28;20087;-63
2021/12/26 03:11:03;;;;;;;2.53;1.55;;;-7.60;99.90;;;;;;5030558;28;20134;-63
2021/12/26 03:13:28;;;;;;;4.07;2.35;;;-7.70;99.90;;;;;;5029689;28;20042;-64
2021/12/26 03:15:54;;;;;;;3.60;1.83;;;-7.70;99.90;;;;;;5030528;28;20052;-63
2021/12/26 03:18:20;;;;;;;4.10;1.63;;;-7.80;99.90;;;;;;5035334;28;20108;-63
2021/12/26 03:20:49;;;;;;;2.63;1.52;;;-7.80;99.90;;;;;;5040712;28;20056;-64
2021/12/26 03:23:18;;;;;;;2.25;1.38;;;-7.90;99.90;;;;;;5038432;28;20037;-64
2021/12/26 03:25:45;;;;;;;2.88;1.65;;;-7.90;99.90;;;;;;5039005;28;20089;-63
2021/12/26 03:28:12;;;;;;;2.30;1.73;;;-8.00;99.90;;;;;;5043689;28;20048;-63
2021/12/26 03:30:39;;;;;;;5.15;1.77;;;-8.00;99.90;;;;;;5049466;28;20041;-64
2021/12/26 03:33:07;;;;;;;3.72;2.00;;;-8.00;99.90;;;;;;5035213;28;20034;-64
2021/12/26 03:35:33;;;;;;;3.80;1.65;;;-8.00;99.90;;;;;;5046892;28;20056;-63
2021/12/26 03:38:00;;;;;;;2.50;1.60;;;-8.10;99.90;;;;;;5043432;28;20376;-63
2021/12/26 03:40:26;;;;;;;3.10;1.75;;;-8.10;99.90;;;;;;5051766;28;20357;-63
2021/12/26 03:42:53;;;;;;;3.20;1.60;;;-8.20;99.90;;;;;;5043570;28;20044;-63
2021/12/26 03:45:20;;;;;;;2.78;1.65;;;-8.20;99.90;;;;;;5049265;28;20515;-64
2021/12/26 03:47:49;;;;;;;3.85;1.77;;;-8.20;99.90;;;;;;5013013;28;20396;-64
2021/12/26 03:50:17;;;;;;;2.83;1.70;;;-8.20;99.90;;;;;;5048292;28;20064;-63
2021/12/26 03:52:42;;;;;;;2.30;1.70;;;-8.30;99.90;;;;;;5034197;28;20357;-63
2021/12/26 03:55:08;;;;;;;3.35;1.90;;;-8.30;99.90;;;;;;5044796;28;20040;-63
2021/12/26 03:57:34;;;;;;;6.82;2.20;;;-8.30;99.90;;;;;;5043863;28;20510;-64
2021/12/26 04:00:00;;;;;;;5.38;1.90;;;-8.20;99.90;;;;;;5040526;28;20053;-63
2021/12/26 04:02:25;;;;;;;3.13;1.45;;;-8.10;99.90;;;;;;5037756;28;20455;-63
2021/12/26 04:04:51;;;;;;;2.13;1.55;;;-8.10;99.90;;;;;;5030551;28;20136;-63
2021/12/26 04:07:17;;;;;;;2.33;1.63;;;-8.10;99.90;;;;;;5042710;28;20151;-64
2021/12/26 04:09:43;;;;;;;2.40;1.83;;;-8.10;99.90;;;;;;5035645;28;20053;-64
2021/12/26 04:12:09;;;;;;;2.47;1.90;;;-8.20;99.90;;;;;;5039831;28;20053;-64
2021/12/26 04:14:34;;;;;;;2.65;1.90;;;-8.20;99.90;;;;;;5032943;28;20083;-63
2021/12/26 04:17:00;;;;;;;3.50;1.60;;;-8.10;99.90;;;;;;5046794;28;20411;-64
2021/12/26 04:19:26;;;;;;;3.75;1.60;;;-8.10;99.90;;;;;;5031583;28;20045;-64
2021/12/26 04:21:52;;;;;;;3.35;1.92;;;-8.10;99.90;;;;;;5028404;28;20049;-64
2021/12/26 04:24:18;;;;;;;2.78;1.95;;;-8.20;99.90;;;;;;5043154;28;20376;-63
2021/12/26 04:26:43;;;;;;;3.08;1.73;;;-8.20;99.90;;;;;;5034719;28;20103;-63
2021/12/26 04:29:10;;;;;;;2.05;1.40;;;-8.20;99.90;;;;;;5047459;28;20037;-63
2021/12/26 04:31:36;;;;;;;2.58;1.50;;;-8.20;99.90;;;;;;5035830;28;20038;-63
2021/12/26 04:34:03;;;;;;;4.40;2.03;;;-8.20;99.90;;;;;;5042875;28;20451;-64
2021/12/26 04:36:29;;;;;;;2.17;1.40;;;-8.20;99.90;;;;;;5038827;28;20116;-65
2021/12/26 04:38:54;;;;;;;4.45;2.05;;;-8.20;99.90;;;;;;5046893;28;20405;-63
2021/12/26 04:41:20;;;;;;;2.38;1.73;;;-8.20;99.90;;;;;;5044573;28;20364;-64
2021/12/26 04:43:45;;;;;;;4.10;2.17;;;-8.20;99.90;;;;;;5028108;28;20511;-63
2021/12/26 04:46:11;;;;;;;2.30;1.63;;;-8.20;99.90;;;;;;5027801;28;20037;-63
2021/12/26 04:48:40;;;;;;;4.28;2.08;;;-8.20;99.90;;;;;;5013518;28;20477;-63
2021/12/26 04:51:07;;;;;;;5.72;2.45;;;-8.30;99.90;;;;;;5042232;28;20545;-63
2021/12/26 04:53:34;;;;;;;4.32;2.20;;;-8.20;99.90;;;;;;5029192;28;20087;-63
2021/12/26 04:56:00;;;;;;;3.40;1.88;;;-8.20;99.90;;;;;;5042095;28;20048;-63
2021/12/26 04:58:26;;;;;;;4.65;1.70;;;-8.20;99.90;;;;;;5028684;28;20083;-64
2021/12/26 05:00:52;;;;;;;5.60;1.90;;;-8.10;99.90;;;;;;5040244;28;20041;-63
2021/12/26 05:03:18;;;;;;;4.68;1.95;;;-8.00;99.90;;;;;;5029588;28;20160;-63
2021/12/26 05:05:44;;;;;;;4.82;2.35;;;-7.90;99.90;;;;;;5038530;28;20037;-63
2021/12/26 05:08:11;;;;;;;5.43;1.80;;;-7.80;99.90;;;;;;5036792;28;20162;-63
2021/12/26 05:10:38;;;;;;;4.35;2.53;;;-7.70;99.90;;;;;;5044543;28;20128;-63
2021/12/26 05:13:04;;;;;;;5.95;2.40;;;-7.70;99.90;;;;;;5048270;28;20383;-63
2021/12/26 05:15:29;;;;;;;2.80;1.75;;;-7.70;99.90;;;;;;5028568;28;20064;-64
2021/12/26 05:17:56;;;;;;;2.88;1.77;;;-7.60;99.90;;;;;;5045184;28;20060;-63
2021/12/26 05:20:23;;;;;;;4.55;2.00;;;-7.60;99.90;;;;;;5031197;28;20045;-63
2021/12/26 05:22:50;;;;;;;5.07;2.13;;;-7.50;99.90;;;;;;5031203;28;20057;-64
2021/12/26 05:25:16;;;;;;;3.83;2.00;;;-7.50;99.90;;;;;;5043472;28;20030;-63
2021/12/26 05:27:42;;;;;;;5.03;2.30;;;-7.40;99.90;;;;;;5017788;28;20483;-63
2021/12/26 05:30:11;;;;;;;8.02;2.25;;;-7.30;99.90;;;;;;5045279;28;20060;-63
2021/12/26 05:32:37;;;;;;;4.15;2.45;;;-7.30;99.90;;;;;;5039232;28;20029;-63
2021/12/26 05:35:03;;;;;;;5.57;3.08;;;-7.30;99.90;;;;;;5044832;28;20500;-63
2021/12/26 05:37:29;;;;;;;2.85;2.20;;;-7.30;99.90;;;;;;5042849;28;20139;-63
2021/12/26 05:39:56;;;;;;;4.38;2.40;;;-7.30;99.90;;;;;;5046763;28;20581;-64
2021/12/26 05:42:22;;;;;;;4.03;2.13;;;-7.40;99.90;;;;;;5046364;28;20456;-63
2021/12/26 05:44:48;;;;;;;4.53;2.28;;;-7.40;99.90;;;;;;5027092;28;20615;-63
2021/12/26 05:47:14;;;;;;;4.10;2.40;;;-7.40;99.90;;;;;;5034653;28;20045;-63
2021/12/26 05:49:40;;;;;;;5.53;2.78;;;-7.40;99.90;;;;;;5049651;28;20358;-63
2021/12/26 05:52:07;;;;;;;4.38;2.33;;;-7.50;99.90;;;;;;5045881;28;20041;-63
2021/12/26 05:54:33;;;;;;;3.63;2.67;;;-7.40;99.90;;;;;;5049254;28;20047;-64
2021/12/26 05:56:59;;;;;;;4.03;2.25;;;-7.40;99.90;;;;;;5040274;28;20473;-63
2021/12/26 05:59:24;;;;;;;6.07;2.83;;;-7.50;99.90;;;;;;5044425;28;20040;-63
2021/12/26 06:01:50;;;;;;;6.38;3.05;;;-7.60;99.90;;;;;;5044136;28;20040;-63
2021/12/26 06:04:19;;;;;;;5.75;3.03;;;-7.50;99.90;;;;;;5032098;28;20072;-63
2021/12/26 06:06:45;;;;;;;5.78;2.70;;;-7.50;99.90;;;;;;5033596;28;20052;-63
2021/12/26 06:09:11;;;;;;;5.53;2.80;;;-7.40;99.90;;;;;;5039578;28;20025;-63
2021/12/26 06:11:38;;;;;;;5.60;2.95;;;-7.50;99.90;;;;;;5050083;28;20044;-63
2021/12/26 06:14:05;;;;;;;7.07;2.95;;;-7.40;99.90;;;;;;5038547;28;20034;-64
2021/12/26 06:16:30;;;;;;;4.38;3.00;;;-7.30;99.90;;;;;;5027765;28;20052;-64
2021/12/26 06:18:56;;;;;;;6.45;3.10;;;-7.30;99.90;;;;;;5039998;28;20037;-63
2021/12/26 06:21:22;;;;;;;6.10;3.10;;;-7.30;99.90;;;;;;5033335;28;20039;-64
2021/12/26 06:23:51;;;;;;;6.00;3.15;;;-7.30;99.90;;;;;;5034604;28;20033;-63
2021/12/26 06:26:18;;;;;;;4.03;3.28;;;-7.30;99.90;;;;;;5042745;28;20113;-63
2021/12/26 06:28:44;;;;;;;6.43;3.13;;;-7.30;99.90;;;;;;5037266;28;20052;-63
2021/12/26 06:31:10;;;;;;;8.65;3.40;;;-7.30;99.90;;;;;;5028528;28;20044;-63
2021/12/26 06:33:35;;;;;;;9.10;3.45;;;-7.20;99.90;;;;;;5030617;28;20037;-63
2021/12/26 06:36:01;;;;;;;6.15;3.45;;;-7.30;99.90;;;;;;5040240;28;20375;-63
2021/12/26 06:38:26;;;;;;;5.95;3.28;;;-7.30;99.90;;;;;;5025271;28;20041;-63
2021/12/26 06:40:52;;;;;;;4.03;2.83;;;-7.30;99.90;;;;;;5044001;28;20048;-63
2021/12/26 06:43:17;;;;;;;5.20;3.28;;;-7.40;99.90;;;;;;5048365;28;20151;-63
2021/12/26 06:45:43;;;;;;;5.43;3.38;;;-7.40;99.90;;;;;;5046593;28;20110;-63
2021/12/26 06:48:09;;;;;;;5.82;3.47;;;-7.40;99.90;;;;;;5034854;28;20132;-64
2021/12/26 06:50:36;;;;;;;5.38;3.80;;;-7.50;99.90;;;;;;5050157;28;20053;-63
2021/12/26 06:53:02;;;;;;;8.02;3.50;;;-7.50;99.90;;;;;;5036446;28;20077;-63
2021/12/26 06:55:28;;;;;;;11.00;4.07;;;-7.50;99.90;;;;;;5036646;28;20029;-63
2021/12/26 06:57:54;;;;;;;7.15;3.53;;;-7.50;99.90;;;;;;5031085;28;20052;-63
2021/12/26 07:00:20;;;;;;;8.07;3.30;;;-7.60;99.90;;;;;;5039135;28;20033;-63
2021/12/26 07:02:46;;;;;;;6.82;3.63;;;-7.60;99.90;;;;;;5022905;28;20033;-63
2021/12/26 07:05:12;;;;;;;11.02;3.95;;;-7.60;99.90;;;;;;5048797;28;20036;-63
2021/12/26 07:07:39;;;;;;;9.10;3.92;;;-7.60;99.90;;;;;;5041799;28;20040;-63
2021/12/26 07:10:05;;;;;;;7.53;3.50;;;-7.50;99.90;;;;;;5043023;28;20077;-63
2021/12/26 07:12:31;;;;;;;7.15;3.78;;;-7.60;99.90;;;;;;5043371;28;20087;-63
2021/12/26 07:14:56;;;;;;;5.95;3.47;;;-7.60;99.90;;;;;;5017277;28;20077;-63
2021/12/26 07:17:22;;;;;;;5.03;3.53;;;-7.50;99.90;;;;;;5039059;28;20037;-63
2021/12/26 07:19:48;;;;;;;5.72;3.70;;;-7.50;99.90;;;;;;5047669;28;20045;-63
2021/12/26 07:22:14;;;;;;;6.93;3.83;;;-7.50;99.90;;;;;;5033717;28;20079;-64
2021/12/26 07:24:43;;;;;;;8.55;3.85;;;-7.50;99.90;;;;;;5043869;28;20070;-63
2021/12/26 07:27:12;;;;;;;;;;;-7.50;99.90;;;;;;5048648;28;20041;-63
2021/12/26 07:29:38;;;;;;;5.20;3.50;;;-7.50;99.90;;;;;;5035580;28;20322;-63
2021/12/26 07:32:04;;;;;;;5.38;3.63;;;-7.50;99.90;;;;;;5045909;28;20110;-63
2021/12/26 07:34:30;;;;;;;5.50;3.78;;;-7.50;99.90;;;;;;5040028;28;20028;-63
2021/12/26 07:36:55;;;;;;;9.63;4.05;;;-7.50;99.90;;;;;;5041292;28;20785;-63
2021/12/26 07:39:21;;;;;;;8.90;3.72;;;-7.50;99.90;;;;;;5042447;28;20077;-63
2021/12/26 07:41:46;;;;;;;8.00;4.32;;;-7.50;99.90;;;;;;5038655;28;20045;-64
2021/12/26 07:44:12;;;;;;;6.65;4.15;;;-7.40;99.90;;;;;;5047416;28;20052;-63
2021/12/26 07:46:38;;;;;;;8.80;4.18;;;-7.40;99.90;;;;;;5044095;28;20079;-63
2021/12/26 07:49:04;;;;;;;6.65;3.72;;;-7.30;99.90;;;;;;5041588;28;20041;-63
2021/12/26 07:51:29;;;;;;;5.93;3.78;;;-7.30;99.90;;;;;;5029060;28;20049;-63
2021/12/26 07:54:00;;;;;;;10.98;4.38;;;-7.30;99.90;;;;;;5047655;28;20047;-64
2021/12/26 07:56:25;;;;;;;6.57;3.38;;;-7.30;99.90;;;;;;5044969;28;20047;-63
2021/12/26 07:58:51;;;;;;;8.73;3.83;;;-7.30;99.90;;;;;;5044348;28;20099;-63
2021/12/26 08:01:17;;;;;;;9.55;4.30;;;-7.30;99.90;;;;;;5022084;28;20077;-63
2021/12/26 08:03:43;;;;;;;7.63;4.10;;;-7.30;99.90;;;;;;5031890;28;20060;-63
2021/12/26 08:06:11;;;;;;;6.60;3.75;;;-7.30;99.90;;;;;;5043630;28;20624;-63
2021/12/26 08:08:38;;;;;;;8.10;4.30;;;-7.30;99.90;;;;;;5044845;28;20119;-62
2021/12/26 08:11:04;;;;;;;6.90;4.57;;;-7.30;99.90;;;;;;5033846;28;20126;-62
2021/12/26 08:13:31;;;;;;;7.90;4.00;;;-7.20;99.90;;;;;;5043712;28;20453;-62
2021/12/26 08:15:57;;;;;;;6.97;3.97;;;-7.20;99.90;;;;;;5048886;28;20041;-61
2021/12/26 08:18:22;;;;;;;10.85;4.30;;;-7.20;99.90;;;;;;5035647;28;20111;-61
2021/12/26 08:20:48;;;;;;;6.28;3.90;;;-7.10;99.90;;;;;;5039124;28;20139;-62
2021/12/26 08:23:14;;;;;;;6.28;4.28;;;-7.10;99.90;;;;;;5040412;28;20541;-61
2021/12/26 08:25:39;;;;;;;11.82;4.57;;;-7.00;99.90;;;;;;5046905;28;20030;-62
2021/12/26 08:28:05;;;;;;;7.60;4.20;;;-6.90;99.90;;;;;;5026213;28;20048;-62
2021/12/26 08:30:30;;;;;;;6.60;3.50;;;-6.90;99.90;;;;;;5044290;28;20037;-62
2021/12/26 08:33:03;;;;;;;9.00;4.65;;;-6.80;99.90;;;;;;5041339;28;20389;-61
2021/12/26 08:35:29;;;;;;;4.90;3.92;;;-6.80;99.90;;;;;;5042831;28;20037;-61
2021/12/26 08:37:55;;;;;;;6.35;3.95;;;-6.70;99.90;;;;;;5034018;28;20040;-61
2021/12/26 08:40:20;;;;;;;9.18;4.18;;;-6.70;99.90;;;;;;5045684;28;20114;-62
2021/12/26 08:42:46;;;;;;;4.65;3.88;;;-6.70;99.90;;;;;;5040709;28;20430;-62
2021/12/26 08:45:12;;;;;;;7.28;4.28;;;-6.60;99.90;;;;;;5033089;28;20053;-62
2021/12/26 08:47:38;;;;;;;7.00;4.35;;;-6.60;99.90;;;;;;5026110;28;20120;-61
2021/12/26 08:50:04;;;;;;;10.70;4.38;;;-6.50;99.90;;;;;;5037567;28;20599;-62
2021/12/26 08:52:30;;;;;;;6.13;3.65;;;-6.40;99.90;;;;;;5045703;28;20041;-62
2021/12/26 08:54:55;;;;;;;7.78;4.22;;;-6.30;99.90;;;;;;5015745;28;20115;-64
2021/12/26 08:57:21;;;;;;;10.63;4.90;;;-6.20;99.90;;;;;;5029931;28;20040;-64
2021/12/26 08:59:46;;;;;;;10.13;4.35;;;-6.10;99.90;;;;;;5038310;28;20045;-62
2021/12/26 09:02:13;;;;;;;7.80;4.22;;;-6.00;99.90;;;;;;5041416;28;20049;-62
2021/12/26 09:04:40;;;;;;;8.05;3.88;;;-6.00;99.90;;;;;;5037813;28;20103;-62
2021/12/26 09:07:07;;;;;;;6.20;4.43;;;-5.90;99.90;;;;;;5032389;28;20037;-64
2021/12/26 09:09:33;;;;;;;9.40;3.83;;;-5.80;99.90;;;;;;5043881;28;20047;-64
2021/12/26 09:12:00;;;;;;;3.78;3.30;;;-5.70;99.90;;;;;;5021507;28;20472;-64
2021/12/26 09:14:28;;;;;;;6.60;3.70;;;-5.70;99.90;;;;;;5045656;28;20373;-64
2021/12/26 09:16:54;;;;;;;8.25;4.20;;;-5.60;99.90;;;;;;5043847;28;20045;-65
2021/12/26 09:19:20;;;;;;;7.50;4.45;;;-5.50;99.90;;;;;;5040135;28;20120;-65
2021/12/26 09:21:45;;;;;;;7.30;4.30;;;-5.50;99.90;;;;;;5031430;28;20052;-64
2021/12/26 09:24:11;;;;;;;10.00;3.97;;;-5.40;99.90;;;;;;5031024;28;20046;-64
2021/12/26 09:26:36;;;;;;;10.23;4.32;;;-5.40;98.40;;;;;;5035871;28;20458;-65
2021/12/26 09:29:02;;;;;;;8.85;4.15;;;-5.30;99.90;;;;;;5041383;28;20481;-63
2021/12/26 09:31:28;;;;;;;9.45;4.32;;;-5.30;99.90;;;;;;5044765;28;20048;-64
2021/12/26 09:33:54;;;;;;;7.57;4.47;;;-5.20;99.90;;;;;;5047921;28;20052;-64
2021/12/26 09:36:20;;;;;;;7.65;4.22;;;-5.10;99.90;;;;;;5049427;28;20407;-64
2021/12/26 09:38:46;;;;;;;7.40;4.97;;;-5.10;99.90;;;;;;5040699;28;20095;-64
2021/12/26 09:41:11;;;;;;;5.88;3.72;;;-5.00;99.90;;;;;;5041673;28;20052;-64
2021/12/26 09:43:38;;;;;;;6.82;4.53;;;-4.90;99.90;;;;;;5031117;28;20484;-64
2021/12/26 09:46:04;;;;;;;8.70;4.13;;;-4.90;99.90;;;;;;5033039;28;20037;-64
2021/12/26 09:48:29;;;;;;;7.13;4.53;;;-4.80;99.20;;;;;;5029560;28;20116;-65
2021/12/26 09:50:55;;;;;;;6.53;4.45;;;-4.70;99.90;;;;;;5026421;28;20130;-64
2021/12/26 09:53:20;;;;;;;6.78;4.30;;;-4.60;98.40;;;;;;5016603;28;20558;-65
2021/12/26 09:55:46;;;;;;;5.15;3.25;;;-4.60;99.90;;;;;;5045368;28;20052;-64
2021/12/26 09:58:13;;;;;;;5.68;4.13;;;-4.50;98.30;;;;;;5038440;28;20092;-64
2021/12/26 10:00:44;;;;;;;7.70;4.10;;;-4.50;96.30;;;;;;5034495;28;20053;-65
2021/12/26 10:03:18;;;;;;;8.63;4.20;;;-4.40;95.70;;;;;;5027483;28;20037;-64
2021/12/26 10:06:13;;;;;;;11.23;4.57;;;-4.30;98.90;;;;;;5028347;28;20045;-65
2021/12/26 10:08:53;;;;;;;9.52;4.63;;;-4.30;97.30;;;;;;5042816;28;20048;-65
2021/12/26 10:11:21;;;;;;;9.32;4.63;;;-4.20;95.90;;;;;;5016281;28;20058;-64
2021/12/26 10:13:50;;;;;;;9.10;4.22;;;-4.10;98.50;;;;;;5040809;28;20045;-65
2021/12/26 10:16:18;;;;;;;6.72;4.00;;;-4.00;97.10;;;;;;5036595;28;20029;-65
2021/12/26 10:18:46;;;;;;;7.78;4.20;;;-3.90;95.20;;;;;;5040442;28;20044;-65
2021/12/26 10:21:29;;;;;;;5.47;3.70;;;-3.80;97.00;;;;;;5018808;28;20098;-65
2021/12/26 10:24:15;;;;;;;6.45;4.15;;;-3.70;96.30;;;;;;5035381;28;20119;-64
2021/12/26 10:27:02;;;;;;;6.60;4.00;;;-3.60;97.00;;;;;;5027425;28;20049;-65
2021/12/26 10:29:38;;;;;;;8.18;4.55;;;-3.50;98.30;;;;;;5028993;28;20034;-62
2021/12/26 10:32:11;;;;;;;6.28;3.60;;;-3.40;96.60;;;;;;5029434;28;20038;-63
2021/12/26 10:34:38;;;;;;;7.03;4.10;;;-3.30;96.80;;;;;;5011957;28;20116;-62
2021/12/26 10:37:07;;;;;;;6.20;3.67;;;-3.20;97.10;;;;;;5025736;28;20138;-62
2021/12/26 10:39:53;;;;;;;7.85;4.07;;;-3.20;96.10;;;;;;5028754;28;20172;-62
2021/12/26 10:42:24;;;;;;;5.85;3.67;;;-3.10;95.00;;;;;;5028427;28;20052;-62
2021/12/26 10:44:53;;;;;;;6.55;3.78;;;-3.10;95.70;;;;;;5044228;28;20041;-62
2021/12/26 10:47:25;;;;;;;6.20;3.75;;;-3.00;97.30;;;;;;5027389;28;20041;-62
2021/12/26 10:50:06;;;;;;;7.25;3.97;;;-3.00;94.70;;;;;;5028083;28;20052;-62
2021/12/26 10:52:37;;;;;;;8.32;4.22;;;-2.90;98.40;;;;;;5018687;28;20045;-62
2021/12/26 10:55:11;;;;;;;9.05;4.40;;;-2.80;96.00;;;;;;5046206;28;20084;-63
2021/12/26 10:57:40;;;;;;;6.30;4.35;;;-2.70;94.30;;;;;;5024633;28;20046;-62
2021/12/26 11:00:09;;;;;;;6.78;4.05;;;-2.60;97.80;;;;;;5042038;28;20041;-65
2021/12/26 11:02:35;;;;;;;9.40;4.53;;;-2.60;98.80;;;;;;5034816;28;20053;-65
2021/12/26 11:05:08;;;;;;;6.50;4.38;;;-2.50;99.80;;;;;;5039066;28;20143;-64
2021/12/26 11:07:41;;;;;;;6.60;3.83;;;-2.50;94.50;;;;;;5040238;28;20060;-65
2021/12/26 11:10:13;;;;;;;6.93;3.92;;;-2.40;96.40;;;;;;5029722;28;20061;-65
2021/12/26 11:12:52;;;;;;;6.63;4.20;;;-2.40;95.70;;;;;;5038119;28;20095;-65
2021/12/26 11:15:21;;;;;;;8.48;4.07;;;-2.40;94.00;;;;;;5035917;28;20041;-65
2021/12/26 11:18:16;;;;;;;5.85;4.32;;;-2.30;96.00;;;;;;5036042;28;20106;-64
2021/12/26 11:20:45;;;;;;;5.35;3.63;;;-2.30;93.30;;;;;;5032484;28;20103;-66
2021/12/26 11:23:33;;;;;;;8.10;3.55;;;-2.30;96.00;;;;;;5037248;28;20041;-64
2021/12/26 11:26:10;;;;;;;5.57;3.63;;;-2.20;94.50;;;;;;5029007;28;20104;-70
2021/12/26 11:28:41;;;;;;;5.22;3.72;;;-2.20;92.70;;;;;;5048036;28;20037;-64
2021/12/26 11:31:10;;;;;;;11.07;4.80;;;-2.20;90.80;;;;;;5029173;28;20180;-67
2021/12/26 11:33:37;;;;;;;7.05;4.00;;;-2.10;94.70;;;;;;5032308;28;20029;-66
2021/12/26 11:36:04;;;;;;;6.22;3.67;;;-2.10;91.50;;;;;;5036655;28;20088;-64
2021/12/26 11:38:30;;;;;;;6.45;3.90;;;-2.10;91.20;;;;;;5035505;28;20099;-65
2021/12/26 11:41:05;;;;;;;8.02;4.15;;;-2.00;93.50;;;;;;5042500;28;20477;-66
2021/12/26 11:44:02;;;;;;;8.77;4.30;;;-2.00;92.10;;;;;;5032236;28;20121;-66
2021/12/26 11:47:01;;;;;;;6.05;3.70;;;-2.00;92.20;;;;;;5041048;28;20138;-65
2021/12/26 11:50:04;;;;;;;6.88;3.85;;;-2.00;90.80;;;;;;5041326;28;20361;-65
2021/12/26 11:52:47;;;;;;;11.43;4.38;;;-1.90;93.30;;;;;;5022273;28;20350;-66
2021/12/26 11:55:28;;;;;;;8.40;3.83;;;-1.90;92.70;;;;;;5046803;28;20033;-66
2021/12/26 11:58:20;;;;;;;5.68;3.58;;;-1.80;92.00;;;;;;5030958;28;20435;-66
2021/12/26 12:00:54;;;;;;;6.50;3.97;;;-1.80;91.70;;;;;;5043287;28;20079;-65
2021/12/26 12:03:25;;;;;;;7.15;4.22;;;-1.80;91.20;;;;;;5030069;28;20037;-65
2021/12/26 12:05:52;;;;;;;7.60;4.30;;;-1.70;90.60;;;;;;5031286;28;20053;-65
2021/12/26 12:08:32;;;;;;;4.70;3.25;;;-1.70;89.10;;;;;;5034417;28;20056;-66
2021/12/26 12:10:59;;;;;;;7.28;3.97;;;-1.60;88.70;;;;;;5039789;28;20045;-66
2021/12/26 12:13:39;;;;;;;9.50;4.03;;;-1.60;91.00;;;;;;5029597;28;20059;-65
2021/12/26 12:16:27;;;;;;;6.57;3.72;;;-1.60;89.60;;;;;;5046343;28;20067;-66
2021/12/26 12:18:56;;;;;;;8.25;3.88;;;-1.50;85.80;;;;;;5013507;28;20053;-66
2021/12/26 12:21:46;;;;;;;6.50;3.88;;;-1.50;88.80;;;;;;5032510;28;20037;-66
2021/12/26 12:24:23;;;;;;;7.93;3.65;;;-1.40;87.30;;;;;;5041202;28;20043;-65
2021/12/26 12:26:58;;;;;;;6.40;3.35;;;-1.30;88.50;;;;;;5032201;28;20067;-66
2021/12/26 12:29:29;;;;;;;6.53;3.28;;;-1.30;91.90;;;;;;5033654;28;20481;-66
2021/12/26 12:32:17;;;;;;;10.43;4.30;;;-1.20;90.80;;;;;;5039334;28;20338;-65
2021/12/26 12:34:56;;;;;;;4.63;3.30;;;-1.20;90.40;;;;;;5044842;28;20095;-66
2021/12/26 12:37:39;;;;;;;8.63;3.75;;;-1.10;89.00;;;;;;5030296;28;20036;-65
2021/12/26 12:40:30;;;;;;;6.05;3.53;;;-1.00;86.00;;;;;;5044285;28;20382;-65
2021/12/26 12:43:07;;;;;;;7.40;3.50;;;-1.00;83.80;;;;;;5033348;28;20112;-66
2021/12/26 12:45:52;;;;;;;9.45;4.60;;;-0.90;86.90;;;;;;5043465;28;20064;-66
2021/12/26 12:48:23;;;;;;;7.55;3.92;;;-0.90;83.20;;;;;;5017019;28;20079;-65
2021/12/26 12:50:49;;;;;;;8.50;4.35;;;-0.90;86.00;;;;;;5029921;28;20064;-66
2021/12/26 12:53:43;;;;;;;6.40;3.83;;;-0.90;87.90;;;;;;5046003;28;20475;-65
2021/12/26 12:56:29;;;;;;;7.50;4.72;;;-0.80;82.60;;;;;;5025542;28;20670;-66
2021/12/26 12:59:17;;;;;;;6.63;3.60;;;-0.80;83.60;;;;;;5019079;28;20175;-67
2021/12/26 13:01:57;;;;;;;8.50;4.05;;;-0.80;86.10;;;;;;5018919;28;20126;-67
2021/12/26 13:04:28;;;;;;;5.30;3.58;;;-0.70;85.60;;;;;;5031210;28;20076;-66